UAE355 EGLL-OMDB
Flight info
| Callsign | UAE355 |
|---|---|
| Flight time | N/A |
| Altitude | 39000 |
| Route | MAXIT1G/27L MAXIT Y803 MID L612 BOGNA UL612 VEULE DCT KOTAP DCT KETEX DCT KOTIS DCT KUKOR DCT UTUVA DCT TITVA DCT NOQAS DCT OTROT DCT RETNO DCT KOLON DCT RAPUR DCT RATAP DCT BTA/N0478F400 DCT MOULE DCT XOPTA/N0477F390 DCT RIFFI DCT PNZ DCT MASOT DCT BELIX DCT SALUN/N0485F410 N705 MMA P751 DASUM Y234 FYM M872 BDB Y214 RAPMA DCT KUVSO DCT KATIT DCT PEKEM M628 RIGIL G783 ELUDA/N0506F350 G783 ASPED Q308 KIPOK Q568 IMPED |
| Aircraft | A359/H-SDE2E3GHIJ3J4J5LM1ORWXY/LB1D1 |
Departure
| Time | 2026-05-04 09:54 |
|---|---|
| Airport | London Heathrow Airport (EGLL) |
Arrival
| Time | N/A |
|---|---|
| Airport | Dubai International Airport (OMDB) |
| Time | Latitude | Longitude | Altitude | Speed | Heading |
|---|---|---|---|---|---|
| 2026-05-04 09:20 | 51.47397 | -0.47501 | 92 ft | 0 kts | 270° |
| 2026-05-04 09:21 | 51.47397 | -0.47500 | 92 ft | 0 kts | 270° |
| 2026-05-04 09:43 | 51.47397 | -0.47498 | 92 ft | 1 kts | 270° |
| 2026-05-04 09:43 | 51.47397 | -0.47459 | 95 ft | 4 kts | 270° |
| 2026-05-04 09:44 | 51.47398 | -0.47414 | 95 ft | 4 kts | 269° |
| 2026-05-04 09:44 | 51.47397 | -0.47378 | 95 ft | 4 kts | 296° |
| 2026-05-04 09:44 | 51.47379 | -0.47355 | 95 ft | 4 kts | 354° |
| 2026-05-04 09:46 | 51.47351 | -0.47354 | 92 ft | 0 kts | 360° |
| 2026-05-04 09:47 | 51.47378 | -0.47354 | 92 ft | 14 kts | 360° |
| 2026-05-04 09:47 | 51.47470 | -0.47327 | 96 ft | 11 kts | 42° |
| 2026-05-04 09:49 | 51.47016 | -0.46864 | 92 ft | 20 kts | 180° |
| 2026-05-04 09:49 | 51.46872 | -0.46862 | 95 ft | 21 kts | 179° |
| 2026-05-04 09:49 | 51.46721 | -0.46861 | 94 ft | 22 kts | 182° |
| 2026-05-04 09:51 | 51.46662 | -0.45498 | 95 ft | 31 kts | 90° |
| 2026-05-04 09:51 | 51.46664 | -0.45154 | 93 ft | 31 kts | 89° |
| 2026-05-04 09:51 | 51.46665 | -0.44811 | 94 ft | 31 kts | 89° |
| 2026-05-04 09:51 | 51.46666 | -0.44470 | 94 ft | 30 kts | 90° |
| 2026-05-04 09:52 | 51.46667 | -0.44132 | 92 ft | 30 kts | 89° |
| 2026-05-04 09:52 | 51.46668 | -0.43810 | 92 ft | 26 kts | 90° |
| 2026-05-04 09:52 | 51.46640 | -0.43618 | 96 ft | 13 kts | 150° |
| 2026-05-04 09:52 | 51.46563 | -0.43603 | 93 ft | 11 kts | 176° |
| 2026-05-04 09:53 | 51.46500 | -0.43660 | 96 ft | 9 kts | 237° |
| 2026-05-04 09:53 | 51.46495 | -0.43750 | 92 ft | 14 kts | 268° |
| 2026-05-04 09:53 | 51.46492 | -0.44188 | 92 ft | 71 kts | 269° |
| 2026-05-04 09:53 | 51.46486 | -0.45301 | 98 ft | 127 kts | 270° |
| 2026-05-04 09:54 | 51.46467 | -0.46976 | 163 ft | 167 kts | 272° |
| 2026-05-04 09:54 | 51.46458 | -0.48820 | 772 ft | 162 kts | 271° |
| 2026-05-04 09:54 | 51.46376 | -0.50633 | 1350 ft | 170 kts | 266° |
| 2026-05-04 09:54 | 51.46278 | -0.52624 | 1707 ft | 190 kts | 265° |
| 2026-05-04 09:55 | 51.45838 | -0.54749 | 2122 ft | 210 kts | 242° |
| 2026-05-04 09:55 | 51.45092 | -0.56840 | 2580 ft | 228 kts | 239° |
| 2026-05-04 09:55 | 51.44052 | -0.58904 | 2987 ft | 246 kts | 217° |
| 2026-05-04 09:55 | 51.42482 | -0.60021 | 3600 ft | 252 kts | 193° |
| 2026-05-04 09:56 | 51.40748 | -0.60588 | 4241 ft | 257 kts | 188° |
| 2026-05-04 09:56 | 51.38952 | -0.60570 | 4940 ft | 260 kts | 168° |
| 2026-05-04 09:56 | 51.37228 | -0.59775 | 5612 ft | 263 kts | 161° |
| 2026-05-04 09:56 | 51.35485 | -0.58790 | 5947 ft | 268 kts | 160° |
| 2026-05-04 09:57 | 51.33733 | -0.57786 | 6027 ft | 268 kts | 161° |
| 2026-05-04 09:57 | 51.31973 | -0.56800 | 5987 ft | 269 kts | 161° |
| 2026-05-04 09:57 | 51.30199 | -0.55871 | 5992 ft | 268 kts | 166° |
| 2026-05-04 09:57 | 51.28352 | -0.55614 | 5984 ft | 267 kts | 183° |
| 2026-05-04 09:58 | 51.26501 | -0.55872 | 5988 ft | 268 kts | 186° |
| 2026-05-04 09:58 | 51.24646 | -0.56253 | 5987 ft | 269 kts | 188° |
| 2026-05-04 09:58 | 51.22809 | -0.56773 | 6220 ft | 269 kts | 191° |